sensor_id;sensor_type;location;lat;lon;timestamp;P1;durP1;ratioP1;P2;durP2;ratioP2
75050;SDS011;63628;47.656;11.310;2023-02-28T00:00:10;5.17;;;3.27;;
75050;SDS011;63628;47.656;11.310;2023-02-28T00:02:38;3.97;;;3.03;;
75050;SDS011;63628;47.656;11.310;2023-02-28T00:05:06;5.07;;;3.17;;
75050;SDS011;63628;47.656;11.310;2023-02-28T00:07:34;5.23;;;3.80;;
75050;SDS011;63628;47.656;11.310;2023-02-28T00:10:02;4.93;;;3.23;;
75050;SDS011;63628;47.656;11.310;2023-02-28T00:12:29;4.13;;;3.00;;
75050;SDS011;63628;47.656;11.310;2023-02-28T00:14:56;4.10;;;3.13;;
75050;SDS011;63628;47.656;11.310;2023-02-28T00:17:22;6.83;;;3.70;;
75050;SDS011;63628;47.656;11.310;2023-02-28T00:19:50;4.60;;;3.50;;
75050;SDS011;63628;47.656;11.310;2023-02-28T00:22:18;3.90;;;3.37;;
75050;SDS011;63628;47.656;11.310;2023-02-28T00:24:46;4.40;;;2.97;;
75050;SDS011;63628;47.656;11.310;2023-02-28T00:27:14;4.50;;;2.83;;
75050;SDS011;63628;47.656;11.310;2023-02-28T00:29:41;3.97;;;3.03;;
75050;SDS011;63628;47.656;11.310;2023-02-28T00:32:08;4.30;;;2.83;;
75050;SDS011;63628;47.656;11.310;2023-02-28T00:34:34;4.60;;;3.20;;
75050;SDS011;63628;47.656;11.310;2023-02-28T00:37:04;3.63;;;2.63;;
75050;SDS011;63628;47.656;11.310;2023-02-28T00:39:33;5.53;;;3.67;;
75050;SDS011;63628;47.656;11.310;2023-02-28T00:42:00;5.28;;;3.90;;
75050;SDS011;63628;47.656;11.310;2023-02-28T00:44:29;4.63;;;3.67;;
75050;SDS011;63628;47.656;11.310;2023-02-28T00:46:56;4.40;;;3.10;;
75050;SDS011;63628;47.656;11.310;2023-02-28T00:49:23;4.80;;;3.37;;
75050;SDS011;63628;47.656;11.310;2023-02-28T00:51:51;5.20;;;3.07;;
75050;SDS011;63628;47.656;11.310;2023-02-28T00:54:18;3.63;;;2.53;;
75050;SDS011;63628;47.656;11.310;2023-02-28T00:56:45;4.40;;;2.93;;
75050;SDS011;63628;47.656;11.310;2023-02-28T00:59:14;4.53;;;2.95;;
75050;SDS011;63628;47.656;11.310;2023-02-28T01:01:43;4.63;;;3.00;;
75050;SDS011;63628;47.656;11.310;2023-02-28T01:04:10;4.25;;;3.17;;
75050;SDS011;63628;47.656;11.310;2023-02-28T01:06:38;4.10;;;2.63;;
75050;SDS011;63628;47.656;11.310;2023-02-28T01:09:05;3.90;;;2.77;;
75050;SDS011;63628;47.656;11.310;2023-02-28T01:11:33;4.70;;;2.87;;
75050;SDS011;63628;47.656;11.310;2023-02-28T01:14:00;4.43;;;2.50;;
75050;SDS011;63628;47.656;11.310;2023-02-28T01:16:28;4.33;;;2.97;;
75050;SDS011;63628;47.656;11.310;2023-02-28T01:18:56;4.80;;;2.90;;
75050;SDS011;63628;47.656;11.310;2023-02-28T01:21:22;4.33;;;2.83;;
75050;SDS011;63628;47.656;11.310;2023-02-28T01:23:50;4.77;;;3.07;;
75050;SDS011;63628;47.656;11.310;2023-02-28T01:26:18;9.57;;;3.40;;
75050;SDS011;63628;47.656;11.310;2023-02-28T01:28:46;5.33;;;3.27;;
75050;SDS011;63628;47.656;11.310;2023-02-28T01:31:13;4.37;;;2.90;;
75050;SDS011;63628;47.656;11.310;2023-02-28T01:33:40;3.53;;;2.70;;
75050;SDS011;63628;47.656;11.310;2023-02-28T01:36:09;3.90;;;2.97;;
75050;SDS011;63628;47.656;11.310;2023-02-28T01:38:38;3.30;;;2.77;;
75050;SDS011;63628;47.656;11.310;2023-02-28T01:41:05;4.43;;;2.70;;
75050;SDS011;63628;47.656;11.310;2023-02-28T01:43:51;4.00;;;2.73;;
75050;SDS011;63628;47.656;11.310;2023-02-28T01:46:20;5.60;;;3.47;;
75050;SDS011;63628;47.656;11.310;2023-02-28T01:48:49;4.20;;;2.80;;
75050;SDS011;63628;47.656;11.310;2023-02-28T01:51:21;4.83;;;3.30;;
75050;SDS011;63628;47.656;11.310;2023-02-28T01:53:51;3.90;;;3.20;;
75050;SDS011;63628;47.656;11.310;2023-02-28T01:56:23;4.07;;;3.07;;
75050;SDS011;63628;47.656;11.310;2023-02-28T01:58:54;4.23;;;2.90;;
75050;SDS011;63628;47.656;11.310;2023-02-28T02:01:21;5.17;;;3.47;;
75050;SDS011;63628;47.656;11.310;2023-02-28T02:03:50;3.88;;;2.95;;
75050;SDS011;63628;47.656;11.310;2023-02-28T02:06:23;4.50;;;3.00;;
75050;SDS011;63628;47.656;11.310;2023-02-28T02:08:53;3.47;;;2.80;;
75050;SDS011;63628;47.656;11.310;2023-02-28T02:11:20;4.90;;;3.17;;
75050;SDS011;63628;47.656;11.310;2023-02-28T02:13:59;4.93;;;2.70;;
75050;SDS011;63628;47.656;11.310;2023-02-28T02:19:29;4.57;;;3.10;;
75050;SDS011;63628;47.656;11.310;2023-02-28T02:22:30;2.87;;;2.53;;
75050;SDS011;63628;47.656;11.310;2023-02-28T02:25:29;5.60;;;3.20;;
75050;SDS011;63628;47.656;11.310;2023-02-28T02:28:05;3.93;;;3.03;;
75050;SDS011;63628;47.656;11.310;2023-02-28T02:30:58;3.53;;;2.77;;
75050;SDS011;63628;47.656;11.310;2023-02-28T02:36:45;4.30;;;2.60;;
75050;SDS011;63628;47.656;11.310;2023-02-28T02:39:19;3.10;;;2.53;;
75050;SDS011;63628;47.656;11.310;2023-02-28T02:41:55;4.23;;;3.03;;
75050;SDS011;63628;47.656;11.310;2023-02-28T02:44:28;3.13;;;2.77;;
75050;SDS011;63628;47.656;11.310;2023-02-28T02:47:03;5.40;;;3.37;;
75050;SDS011;63628;47.656;11.310;2023-02-28T02:49:36;5.93;;;3.20;;
75050;SDS011;63628;47.656;11.310;2023-02-28T02:52:07;3.13;;;2.83;;
75050;SDS011;63628;47.656;11.310;2023-02-28T02:54:38;4.17;;;3.07;;
75050;SDS011;63628;47.656;11.310;2023-02-28T02:57:08;4.40;;;3.17;;
75050;SDS011;63628;47.656;11.310;2023-02-28T02:59:40;4.23;;;2.77;;
75050;SDS011;63628;47.656;11.310;2023-02-28T03:02:08;4.00;;;3.13;;
75050;SDS011;63628;47.656;11.310;2023-02-28T03:04:42;3.57;;;2.93;;
75050;SDS011;63628;47.656;11.310;2023-02-28T03:07:12;5.23;;;3.17;;
75050;SDS011;63628;47.656;11.310;2023-02-28T03:09:38;4.80;;;3.37;;
75050;SDS011;63628;47.656;11.310;2023-02-28T03:12:06;5.30;;;3.30;;
75050;SDS011;63628;47.656;11.310;2023-02-28T03:14:40;5.03;;;3.53;;
75050;SDS011;63628;47.656;11.310;2023-02-28T03:17:23;6.18;;;3.28;;
75050;SDS011;63628;47.656;11.310;2023-02-28T03:20:01;4.20;;;3.13;;
75050;SDS011;63628;47.656;11.310;2023-02-28T03:22:42;5.40;;;3.30;;
75050;SDS011;63628;47.656;11.310;2023-02-28T03:25:18;6.30;;;3.23;;
75050;SDS011;63628;47.656;11.310;2023-02-28T03:27:55;5.93;;;3.60;;
75050;SDS011;63628;47.656;11.310;2023-02-28T03:30:29;3.73;;;3.13;;
75050;SDS011;63628;47.656;11.310;2023-02-28T03:33:03;4.23;;;3.10;;
75050;SDS011;63628;47.656;11.310;2023-02-28T03:35:37;4.73;;;3.17;;
75050;SDS011;63628;47.656;11.310;2023-02-28T03:38:09;3.67;;;2.93;;
75050;SDS011;63628;47.656;11.310;2023-02-28T03:40:41;4.53;;;2.70;;
75050;SDS011;63628;47.656;11.310;2023-02-28T03:43:13;3.30;;;2.73;;
75050;SDS011;63628;47.656;11.310;2023-02-28T03:45:46;3.60;;;3.00;;
75050;SDS011;63628;47.656;11.310;2023-02-28T03:48:16;4.35;;;2.83;;
75050;SDS011;63628;47.656;11.310;2023-02-28T03:50:48;5.87;;;3.00;;
75050;SDS011;63628;47.656;11.310;2023-02-28T03:53:19;4.27;;;3.23;;
75050;SDS011;63628;47.656;11.310;2023-02-28T03:55:49;4.90;;;3.20;;
75050;SDS011;63628;47.656;11.310;2023-02-28T03:58:22;4.70;;;3.17;;
75050;SDS011;63628;47.656;11.310;2023-02-28T04:00:55;3.87;;;3.03;;
75050;SDS011;63628;47.656;11.310;2023-02-28T04:03:34;5.87;;;3.60;;
75050;SDS011;63628;47.656;11.310;2023-02-28T04:06:03;3.60;;;3.30;;
75050;SDS011;63628;47.656;11.310;2023-02-28T04:08:32;4.77;;;3.43;;
75050;SDS011;63628;47.656;11.310;2023-02-28T04:11:00;5.17;;;3.13;;
75050;SDS011;63628;47.656;11.310;2023-02-28T04:13:30;5.03;;;3.07;;
75050;SDS011;63628;47.656;11.310;2023-02-28T04:15:57;4.80;;;3.50;;
75050;SDS011;63628;47.656;11.310;2023-02-28T04:18:23;4.20;;;3.03;;
75050;SDS011;63628;47.656;11.310;2023-02-28T04:20:50;4.30;;;3.10;;
75050;SDS011;63628;47.656;11.310;2023-02-28T04:23:18;4.40;;;3.23;;
75050;SDS011;63628;47.656;11.310;2023-02-28T04:25:45;4.30;;;3.37;;
75050;SDS011;63628;47.656;11.310;2023-02-28T04:28:11;3.50;;;3.00;;
75050;SDS011;63628;47.656;11.310;2023-02-28T04:30:38;4.90;;;3.50;;
75050;SDS011;63628;47.656;11.310;2023-02-28T04:33:05;5.80;;;3.23;;
75050;SDS011;63628;47.656;11.310;2023-02-28T04:35:32;4.27;;;3.07;;
75050;SDS011;63628;47.656;11.310;2023-02-28T04:37:58;6.70;;;4.33;;
75050;SDS011;63628;47.656;11.310;2023-02-28T04:40:26;5.47;;;3.63;;
75050;SDS011;63628;47.656;11.310;2023-02-28T04:42:53;4.50;;;2.93;;
75050;SDS011;63628;47.656;11.310;2023-02-28T04:45:19;4.40;;;3.50;;
75050;SDS011;63628;47.656;11.310;2023-02-28T04:47:46;4.57;;;3.10;;
75050;SDS011;63628;47.656;11.310;2023-02-28T04:50:13;4.50;;;3.63;;
75050;SDS011;63628;47.656;11.310;2023-02-28T04:52:39;5.30;;;3.93;;
75050;SDS011;63628;47.656;11.310;2023-02-28T04:55:06;6.17;;;4.00;;
75050;SDS011;63628;47.656;11.310;2023-02-28T04:57:35;4.00;;;3.37;;
75050;SDS011;63628;47.656;11.310;2023-02-28T05:00:01;4.97;;;3.13;;
75050;SDS011;63628;47.656;11.310;2023-02-28T05:02:31;4.55;;;3.38;;
75050;SDS011;63628;47.656;11.310;2023-02-28T05:05:00;4.53;;;3.47;;
75050;SDS011;63628;47.656;11.310;2023-02-28T05:07:27;6.90;;;3.97;;
75050;SDS011;63628;47.656;11.310;2023-02-28T05:09:53;4.63;;;3.93;;
75050;SDS011;63628;47.656;11.310;2023-02-28T05:12:20;4.03;;;3.20;;
75050;SDS011;63628;47.656;11.310;2023-02-28T05:14:48;4.73;;;3.70;;
75050;SDS011;63628;47.656;11.310;2023-02-28T05:17:14;4.53;;;3.63;;
75050;SDS011;63628;47.656;11.310;2023-02-28T05:19:41;4.87;;;3.57;;
75050;SDS011;63628;47.656;11.310;2023-02-28T05:22:11;5.97;;;4.03;;
75050;SDS011;63628;47.656;11.310;2023-02-28T05:24:40;5.97;;;4.03;;
75050;SDS011;63628;47.656;11.310;2023-02-28T05:27:08;5.50;;;3.90;;
75050;SDS011;63628;47.656;11.310;2023-02-28T05:29:35;5.57;;;3.83;;
75050;SDS011;63628;47.656;11.310;2023-02-28T05:32:09;5.47;;;3.87;;
75050;SDS011;63628;47.656;11.310;2023-02-28T05:37:04;6.40;;;3.90;;
75050;SDS011;63628;47.656;11.310;2023-02-28T05:39:30;5.43;;;3.60;;
75050;SDS011;63628;47.656;11.310;2023-02-28T05:41:57;6.13;;;3.73;;
75050;SDS011;63628;47.656;11.310;2023-02-28T05:44:24;5.77;;;4.20;;
75050;SDS011;63628;47.656;11.310;2023-02-28T05:46:51;4.10;;;3.10;;
75050;SDS011;63628;47.656;11.310;2023-02-28T05:49:19;5.07;;;3.97;;
75050;SDS011;63628;47.656;11.310;2023-02-28T05:51:45;4.83;;;3.57;;
75050;SDS011;63628;47.656;11.310;2023-02-28T05:54:12;7.73;;;4.67;;
75050;SDS011;63628;47.656;11.310;2023-02-28T05:56:39;6.00;;;4.20;;
75050;SDS011;63628;47.656;11.310;2023-02-28T05:59:06;5.63;;;4.13;;
75050;SDS011;63628;47.656;11.310;2023-02-28T06:01:34;6.07;;;4.17;;
75050;SDS011;63628;47.656;11.310;2023-02-28T06:04:03;5.60;;;4.38;;
75050;SDS011;63628;47.656;11.310;2023-02-28T06:06:33;6.40;;;4.20;;
75050;SDS011;63628;47.656;11.310;2023-02-28T06:09:03;8.67;;;5.30;;
75050;SDS011;63628;47.656;11.310;2023-02-28T06:11:31;6.17;;;3.80;;
75050;SDS011;63628;47.656;11.310;2023-02-28T06:13:58;5.83;;;4.53;;
75050;SDS011;63628;47.656;11.310;2023-02-28T06:16:27;8.63;;;5.35;;
75050;SDS011;63628;47.656;11.310;2023-02-28T06:18:54;7.43;;;4.20;;
75050;SDS011;63628;47.656;11.310;2023-02-28T06:21:23;6.00;;;4.40;;
75050;SDS011;63628;47.656;11.310;2023-02-28T06:23:52;7.17;;;4.40;;
75050;SDS011;63628;47.656;11.310;2023-02-28T06:26:19;7.40;;;5.30;;
75050;SDS011;63628;47.656;11.310;2023-02-28T06:28:46;6.50;;;4.80;;
75050;SDS011;63628;47.656;11.310;2023-02-28T06:31:13;6.80;;;4.83;;
75050;SDS011;63628;47.656;11.310;2023-02-28T06:33:41;7.67;;;5.00;;
75050;SDS011;63628;47.656;11.310;2023-02-28T06:36:08;7.83;;;5.47;;
75050;SDS011;63628;47.656;11.310;2023-02-28T06:38:36;7.60;;;5.30;;
75050;SDS011;63628;47.656;11.310;2023-02-28T06:41:05;6.17;;;4.90;;
75050;SDS011;63628;47.656;11.310;2023-02-28T06:43:33;7.40;;;4.53;;
75050;SDS011;63628;47.656;11.310;2023-02-28T06:46:02;7.20;;;4.35;;
75050;SDS011;63628;47.656;11.310;2023-02-28T06:48:31;6.82;;;5.20;;
75050;SDS011;63628;47.656;11.310;2023-02-28T06:53:28;6.30;;;4.40;;
75050;SDS011;63628;47.656;11.310;2023-02-28T06:55:54;6.67;;;5.27;;
75050;SDS011;63628;47.656;11.310;2023-02-28T06:58:22;7.20;;;5.37;;
75050;SDS011;63628;47.656;11.310;2023-02-28T07:00:50;7.13;;;5.13;;
75050;SDS011;63628;47.656;11.310;2023-02-28T07:03:17;5.63;;;4.70;;
75050;SDS011;63628;47.656;11.310;2023-02-28T07:05:44;6.73;;;4.73;;
75050;SDS011;63628;47.656;11.310;2023-02-28T07:08:11;6.43;;;4.90;;
75050;SDS011;63628;47.656;11.310;2023-02-28T07:10:38;6.43;;;4.93;;
75050;SDS011;63628;47.656;11.310;2023-02-28T07:13:05;6.83;;;5.17;;
75050;SDS011;63628;47.656;11.310;2023-02-28T07:15:35;6.90;;;4.97;;
75050;SDS011;63628;47.656;11.310;2023-02-28T07:18:06;6.90;;;4.73;;
75050;SDS011;63628;47.656;11.310;2023-02-28T07:20:33;6.90;;;5.13;;
75050;SDS011;63628;47.656;11.310;2023-02-28T07:22:59;7.97;;;5.80;;
75050;SDS011;63628;47.656;11.310;2023-02-28T07:25:26;7.93;;;5.37;;
75050;SDS011;63628;47.656;11.310;2023-02-28T07:27:54;7.73;;;5.80;;
75050;SDS011;63628;47.656;11.310;2023-02-28T07:30:22;6.77;;;4.43;;
75050;SDS011;63628;47.656;11.310;2023-02-28T07:32:50;6.10;;;5.07;;
75050;SDS011;63628;47.656;11.310;2023-02-28T07:35:16;7.93;;;5.17;;
75050;SDS011;63628;47.656;11.310;2023-02-28T07:37:43;8.10;;;5.17;;
75050;SDS011;63628;47.656;11.310;2023-02-28T07:40:10;7.77;;;5.70;;
75050;SDS011;63628;47.656;11.310;2023-02-28T07:42:38;9.63;;;5.73;;
75050;SDS011;63628;47.656;11.310;2023-02-28T07:45:06;5.83;;;4.70;;
75050;SDS011;63628;47.656;11.310;2023-02-28T07:47:34;6.40;;;4.83;;
75050;SDS011;63628;47.656;11.310;2023-02-28T07:50:02;8.93;;;5.23;;
75050;SDS011;63628;47.656;11.310;2023-02-28T07:52:29;8.37;;;5.53;;
75050;SDS011;63628;47.656;11.310;2023-02-28T07:54:56;7.67;;;5.13;;
75050;SDS011;63628;47.656;11.310;2023-02-28T07:57:22;6.50;;;5.00;;
75050;SDS011;63628;47.656;11.310;2023-02-28T07:59:49;6.57;;;4.93;;
75050;SDS011;63628;47.656;11.310;2023-02-28T08:02:16;6.63;;;5.20;;
75050;SDS011;63628;47.656;11.310;2023-02-28T08:04:44;7.00;;;5.20;;
75050;SDS011;63628;47.656;11.310;2023-02-28T08:07:13;7.27;;;5.27;;
75050;SDS011;63628;47.656;11.310;2023-02-28T08:09:40;7.03;;;5.35;;
75050;SDS011;63628;47.656;11.310;2023-02-28T08:12:07;6.37;;;4.70;;
75050;SDS011;63628;47.656;11.310;2023-02-28T08:14:34;8.83;;;7.30;;
75050;SDS011;63628;47.656;11.310;2023-02-28T08:17:01;8.30;;;5.93;;
75050;SDS011;63628;47.656;11.310;2023-02-28T08:19:28;10.30;;;6.83;;
75050;SDS011;63628;47.656;11.310;2023-02-28T08:21:55;10.73;;;7.47;;
75050;SDS011;63628;47.656;11.310;2023-02-28T08:24:23;9.20;;;7.07;;
75050;SDS011;63628;47.656;11.310;2023-02-28T08:26:50;9.07;;;6.47;;
75050;SDS011;63628;47.656;11.310;2023-02-28T08:29:16;10.17;;;7.10;;
75050;SDS011;63628;47.656;11.310;2023-02-28T08:31:43;9.70;;;7.00;;
75050;SDS011;63628;47.656;11.310;2023-02-28T08:34:11;9.00;;;6.73;;
75050;SDS011;63628;47.656;11.310;2023-02-28T08:36:39;9.15;;;7.50;;
75050;SDS011;63628;47.656;11.310;2023-02-28T08:39:06;11.27;;;8.20;;
75050;SDS011;63628;47.656;11.310;2023-02-28T08:41:34;11.67;;;8.17;;
75050;SDS011;63628;47.656;11.310;2023-02-28T08:44:01;9.93;;;6.73;;
75050;SDS011;63628;47.656;11.310;2023-02-28T08:46:27;8.97;;;6.87;;
75050;SDS011;63628;47.656;11.310;2023-02-28T08:48:54;10.30;;;7.20;;
75050;SDS011;63628;47.656;11.310;2023-02-28T08:51:25;8.33;;;6.83;;
75050;SDS011;63628;47.656;11.310;2023-02-28T08:53:53;11.80;;;7.33;;
75050;SDS011;63628;47.656;11.310;2023-02-28T08:56:21;11.17;;;8.03;;
75050;SDS011;63628;47.656;11.310;2023-02-28T08:58:49;9.77;;;7.20;;
75050;SDS011;63628;47.656;11.310;2023-02-28T09:01:17;9.67;;;7.10;;
75050;SDS011;63628;47.656;11.310;2023-02-28T09:03:45;10.83;;;7.33;;
75050;SDS011;63628;47.656;11.310;2023-02-28T09:06:13;12.43;;;8.53;;
75050;SDS011;63628;47.656;11.310;2023-02-28T09:08:41;12.73;;;7.80;;
75050;SDS011;63628;47.656;11.310;2023-02-28T09:11:09;12.67;;;8.73;;
75050;SDS011;63628;47.656;11.310;2023-02-28T09:13:36;14.90;;;9.97;;
75050;SDS011;63628;47.656;11.310;2023-02-28T09:16:06;12.30;;;7.93;;
75050;SDS011;63628;47.656;11.310;2023-02-28T09:18:35;14.93;;;9.73;;
75050;SDS011;63628;47.656;11.310;2023-02-28T09:21:03;17.80;;;10.13;;
75050;SDS011;63628;47.656;11.310;2023-02-28T09:23:31;12.97;;;8.27;;
75050;SDS011;63628;47.656;11.310;2023-02-28T09:25:57;13.53;;;8.40;;
75050;SDS011;63628;47.656;11.310;2023-02-28T09:28:24;9.87;;;6.70;;
75050;SDS011;63628;47.656;11.310;2023-02-28T09:30:52;16.70;;;11.00;;
75050;SDS011;63628;47.656;11.310;2023-02-28T09:33:21;20.08;;;11.38;;
75050;SDS011;63628;47.656;11.310;2023-02-28T09:35:48;18.33;;;11.47;;
75050;SDS011;63628;47.656;11.310;2023-02-28T09:38:15;20.53;;;11.23;;
75050;SDS011;63628;47.656;11.310;2023-02-28T09:40:45;14.20;;;9.87;;
75050;SDS011;63628;47.656;11.310;2023-02-28T09:43:16;10.57;;;8.00;;
75050;SDS011;63628;47.656;11.310;2023-02-28T09:45:47;16.03;;;10.20;;
75050;SDS011;63628;47.656;11.310;2023-02-28T09:48:19;17.87;;;9.70;;
75050;SDS011;63628;47.656;11.310;2023-02-28T09:50:52;13.10;;;8.40;;
75050;SDS011;63628;47.656;11.310;2023-02-28T09:53:25;11.63;;;7.67;;
75050;SDS011;63628;47.656;11.310;2023-02-28T09:55:55;12.47;;;7.93;;
75050;SDS011;63628;47.656;11.310;2023-02-28T09:58:26;11.87;;;7.40;;
75050;SDS011;63628;47.656;11.310;2023-02-28T10:00:58;13.37;;;8.00;;
75050;SDS011;63628;47.656;11.310;2023-02-28T10:03:33;12.67;;;9.00;;
75050;SDS011;63628;47.656;11.310;2023-02-28T10:06:06;14.13;;;9.47;;
75050;SDS011;63628;47.656;11.310;2023-02-28T10:08:37;13.60;;;8.83;;
75050;SDS011;63628;47.656;11.310;2023-02-28T10:11:11;17.60;;;10.70;;
75050;SDS011;63628;47.656;11.310;2023-02-28T10:13:43;16.90;;;10.82;;
75050;SDS011;63628;47.656;11.310;2023-02-28T10:16:17;16.37;;;9.83;;
75050;SDS011;63628;47.656;11.310;2023-02-28T10:18:50;23.23;;;12.77;;
75050;SDS011;63628;47.656;11.310;2023-02-28T10:21:21;21.70;;;12.60;;
75050;SDS011;63628;47.656;11.310;2023-02-28T10:23:52;21.20;;;13.10;;
75050;SDS011;63628;47.656;11.310;2023-02-28T10:26:28;15.20;;;9.50;;
75050;SDS011;63628;47.656;11.310;2023-02-28T10:28:57;16.88;;;9.75;;
75050;SDS011;63628;47.656;11.310;2023-02-28T10:31:24;17.67;;;11.00;;
75050;SDS011;63628;47.656;11.310;2023-02-28T10:33:53;19.57;;;13.03;;
75050;SDS011;63628;47.656;11.310;2023-02-28T10:36:20;21.93;;;12.87;;
75050;SDS011;63628;47.656;11.310;2023-02-28T10:38:47;15.70;;;10.53;;
75050;SDS011;63628;47.656;11.310;2023-02-28T10:41:16;16.53;;;10.47;;
75050;SDS011;63628;47.656;11.310;2023-02-28T10:43:57;13.93;;;9.07;;
75050;SDS011;63628;47.656;11.310;2023-02-28T10:46:39;16.17;;;9.50;;
75050;SDS011;63628;47.656;11.310;2023-02-28T10:49:13;14.97;;;8.97;;
75050;SDS011;63628;47.656;11.310;2023-02-28T10:51:43;17.30;;;10.47;;
75050;SDS011;63628;47.656;11.310;2023-02-28T10:54:14;13.20;;;9.20;;
75050;SDS011;63628;47.656;11.310;2023-02-28T10:56:42;15.63;;;9.40;;
75050;SDS011;63628;47.656;11.310;2023-02-28T10:59:22;16.43;;;9.63;;
75050;SDS011;63628;47.656;11.310;2023-02-28T11:01:54;16.97;;;10.93;;
75050;SDS011;63628;47.656;11.310;2023-02-28T11:04:33;21.67;;;12.47;;
75050;SDS011;63628;47.656;11.310;2023-02-28T11:07:03;17.30;;;11.90;;
75050;SDS011;63628;47.656;11.310;2023-02-28T11:09:32;18.65;;;10.70;;
75050;SDS011;63628;47.656;11.310;2023-02-28T11:12:01;16.23;;;11.27;;
75050;SDS011;63628;47.656;11.310;2023-02-28T11:14:31;19.75;;;11.45;;
75050;SDS011;63628;47.656;11.310;2023-02-28T11:17:02;17.50;;;12.17;;
75050;SDS011;63628;47.656;11.310;2023-02-28T11:19:44;17.95;;;11.63;;
75050;SDS011;63628;47.656;11.310;2023-02-28T11:22:16;18.77;;;12.27;;
75050;SDS011;63628;47.656;11.310;2023-02-28T11:24:46;21.07;;;13.27;;
75050;SDS011;63628;47.656;11.310;2023-02-28T11:30:29;20.23;;;11.43;;
75050;SDS011;63628;47.656;11.310;2023-02-28T11:32:59;15.47;;;10.13;;
75050;SDS011;63628;47.656;11.310;2023-02-28T11:35:30;19.23;;;11.97;;
75050;SDS011;63628;47.656;11.310;2023-02-28T11:38:00;18.67;;;11.00;;
75050;SDS011;63628;47.656;11.310;2023-02-28T11:40:30;17.63;;;11.60;;
75050;SDS011;63628;47.656;11.310;2023-02-28T11:43:09;19.08;;;12.40;;
75050;SDS011;63628;47.656;11.310;2023-02-28T11:45:53;19.57;;;11.60;;
75050;SDS011;63628;47.656;11.310;2023-02-28T11:48:32;14.13;;;9.70;;
75050;SDS011;63628;47.656;11.310;2023-02-28T11:51:08;19.30;;;12.80;;
75050;SDS011;63628;47.656;11.310;2023-02-28T11:53:50;12.20;;;8.10;;
75050;SDS011;63628;47.656;11.310;2023-02-28T11:56:25;12.43;;;9.07;;
75050;SDS011;63628;47.656;11.310;2023-02-28T11:59:01;14.40;;;9.00;;
75050;SDS011;63628;47.656;11.310;2023-02-28T12:01:43;22.03;;;14.63;;
75050;SDS011;63628;47.656;11.310;2023-02-28T12:07:06;13.40;;;8.47;;
75050;SDS011;63628;47.656;11.310;2023-02-28T12:09:43;14.30;;;8.80;;
75050;SDS011;63628;47.656;11.310;2023-02-28T12:12:23;12.90;;;8.18;;
75050;SDS011;63628;47.656;11.310;2023-02-28T12:15:02;13.23;;;8.15;;
75050;SDS011;63628;47.656;11.310;2023-02-28T12:17:44;15.50;;;9.00;;
75050;SDS011;63628;47.656;11.310;2023-02-28T12:20:22;11.93;;;8.23;;
75050;SDS011;63628;47.656;11.310;2023-02-28T12:23:15;12.85;;;8.55;;
75050;SDS011;63628;47.656;11.310;2023-02-28T12:26:02;12.40;;;8.43;;
75050;SDS011;63628;47.656;11.310;2023-02-28T12:28:37;13.73;;;8.97;;
75050;SDS011;63628;47.656;11.310;2023-02-28T12:31:09;20.47;;;13.60;;
75050;SDS011;63628;47.656;11.310;2023-02-28T12:33:42;14.27;;;8.33;;
75050;SDS011;63628;47.656;11.310;2023-02-28T12:36:14;14.90;;;8.87;;
75050;SDS011;63628;47.656;11.310;2023-02-28T12:38:47;13.27;;;8.47;;
75050;SDS011;63628;47.656;11.310;2023-02-28T12:41:16;15.60;;;9.23;;
75050;SDS011;63628;47.656;11.310;2023-02-28T12:43:47;13.50;;;9.30;;
75050;SDS011;63628;47.656;11.310;2023-02-28T12:46:19;19.63;;;12.73;;
75050;SDS011;63628;47.656;11.310;2023-02-28T12:48:50;21.60;;;14.30;;
75050;SDS011;63628;47.656;11.310;2023-02-28T12:51:19;25.60;;;13.30;;
75050;SDS011;63628;47.656;11.310;2023-02-28T12:53:52;19.57;;;13.07;;
75050;SDS011;63628;47.656;11.310;2023-02-28T12:56:32;22.17;;;13.23;;
75050;SDS011;63628;47.656;11.310;2023-02-28T12:59:07;21.37;;;13.63;;
75050;SDS011;63628;47.656;11.310;2023-02-28T13:01:42;22.30;;;14.07;;
75050;SDS011;63628;47.656;11.310;2023-02-28T13:04:55;22.03;;;15.00;;
75050;SDS011;63628;47.656;11.310;2023-02-28T13:10:40;22.77;;;13.50;;
75050;SDS011;63628;47.656;11.310;2023-02-28T13:13:13;20.13;;;13.93;;
75050;SDS011;63628;47.656;11.310;2023-02-28T13:15:49;19.70;;;12.70;;
75050;SDS011;63628;47.656;11.310;2023-02-28T13:18:28;18.00;;;12.40;;
75050;SDS011;63628;47.656;11.310;2023-02-28T13:20:57;18.10;;;11.40;;
75050;SDS011;63628;47.656;11.310;2023-02-28T13:23:40;20.67;;;13.67;;
75050;SDS011;63628;47.656;11.310;2023-02-28T13:29:30;12.30;;;8.43;;
75050;SDS011;63628;47.656;11.310;2023-02-28T13:32:19;24.23;;;15.30;;
75050;SDS011;63628;47.656;11.310;2023-02-28T13:35:14;11.67;;;8.53;;
75050;SDS011;63628;47.656;11.310;2023-02-28T13:40:49;20.17;;;13.23;;
75050;SDS011;63628;47.656;11.310;2023-02-28T13:43:16;11.57;;;8.40;;
75050;SDS011;63628;47.656;11.310;2023-02-28T13:46:11;15.80;;;9.93;;
75050;SDS011;63628;47.656;11.310;2023-02-28T13:48:39;19.97;;;12.57;;
75050;SDS011;63628;47.656;11.310;2023-02-28T13:54:13;12.87;;;8.73;;
75050;SDS011;63628;47.656;11.310;2023-02-28T13:56:51;13.17;;;8.47;;
75050;SDS011;63628;47.656;11.310;2023-02-28T13:59:26;12.47;;;8.87;;
75050;SDS011;63628;47.656;11.310;2023-02-28T14:02:06;23.73;;;14.17;;
75050;SDS011;63628;47.656;11.310;2023-02-28T14:04:59;27.87;;;15.53;;
75050;SDS011;63628;47.656;11.310;2023-02-28T14:07:28;26.67;;;15.90;;
75050;SDS011;63628;47.656;11.310;2023-02-28T14:10:03;12.37;;;8.93;;
75050;SDS011;63628;47.656;11.310;2023-02-28T14:15:40;26.47;;;16.57;;
75050;SDS011;63628;47.656;11.310;2023-02-28T14:18:17;13.97;;;8.70;;
75050;SDS011;63628;47.656;11.310;2023-02-28T14:20:52;11.70;;;8.37;;
75050;SDS011;63628;47.656;11.310;2023-02-28T14:23:35;12.90;;;8.57;;
75050;SDS011;63628;47.656;11.310;2023-02-28T14:26:13;12.50;;;8.50;;
75050;SDS011;63628;47.656;11.310;2023-02-28T14:29:00;12.33;;;8.47;;
75050;SDS011;63628;47.656;11.310;2023-02-28T14:31:42;12.73;;;8.23;;
75050;SDS011;63628;47.656;11.310;2023-02-28T14:37:05;11.97;;;8.20;;
75050;SDS011;63628;47.656;11.310;2023-02-28T14:39:40;23.57;;;15.57;;
75050;SDS011;63628;47.656;11.310;2023-02-28T14:44:54;11.70;;;8.03;;
75050;SDS011;63628;47.656;11.310;2023-02-28T14:47:25;14.23;;;8.67;;
75050;SDS011;63628;47.656;11.310;2023-02-28T14:49:56;12.70;;;8.90;;
75050;SDS011;63628;47.656;11.310;2023-02-28T14:52:24;12.27;;;8.73;;
75050;SDS011;63628;47.656;11.310;2023-02-28T14:54:54;13.27;;;8.98;;
75050;SDS011;63628;47.656;11.310;2023-02-28T14:57:22;14.95;;;9.85;;
75050;SDS011;63628;47.656;11.310;2023-02-28T14:59:57;14.17;;;9.13;;
75050;SDS011;63628;47.656;11.310;2023-02-28T15:02:25;13.83;;;8.83;;
75050;SDS011;63628;47.656;11.310;2023-02-28T15:04:57;12.77;;;8.53;;
75050;SDS011;63628;47.656;11.310;2023-02-28T15:07:25;13.50;;;8.98;;
75050;SDS011;63628;47.656;11.310;2023-02-28T15:10:09;14.07;;;8.57;;
75050;SDS011;63628;47.656;11.310;2023-02-28T15:12:37;14.00;;;9.83;;
75050;SDS011;63628;47.656;11.310;2023-02-28T15:15:13;24.80;;;15.93;;
75050;SDS011;63628;47.656;11.310;2023-02-28T15:17:42;28.53;;;16.80;;
75050;SDS011;63628;47.656;11.310;2023-02-28T15:20:13;27.50;;;16.57;;
75050;SDS011;63628;47.656;11.310;2023-02-28T15:22:42;28.37;;;16.90;;
75050;SDS011;63628;47.656;11.310;2023-02-28T15:25:10;15.03;;;10.37;;